CW5532 Weather Reports


Display with metric or nautical units.
time (UTC)temp
F
wind
direction
speed
MPH
gust
MPH
rain 1hr
in
rain 24hr
in
rain mn
in
humidity
%
barometer
mb
20220627100712 77 223 1.0 6.0 0.00 0.00 0.00 57 1012.6
20220627100213 76 247 1.0 9.0 0.00 0.00 0.00 58 1012.8
20220627093213 76 238 2.0 12.0 0.00 0.00 0.00 57 1013.2
20220627090213 74 255 0.0 9.0 0.00 0.00 0.00 61 1013.4
20220627080713 71 233 1.0 9.0 0.00 0.00 0.00 62 1012.9
20220627073713 68 262 6.0 12.0 0.00 0.00 0.00 67 1012.5
20220627060712 65 257 2.0 12.0 0.00 0.00 0.00 75 1011.2
20220627060212 65 253 5.0 13.0 0.00 0.00 0.00 74 1011.1
20220627053712 64 257 3.0 10.0 0.00 0.00 0.00 78 1010.6
20220627050712 63 268 0.0 0.0 0.00 0.00 0.00 85 1010.4
20220627043713 62 231 0.0 0.0 0.00 0.00 0.00 86 1010.2
20220627040712 62 229 0.0 0.0 0.00 0.00 0.00 85 1009.9
20220627033212 63 222 0.0 0.0 0.00 0.00 0.00 85 1009.6
20220627030713 63 222 0.0 0.0 0.00 0.00 0.00 85 1009.5
20220627030213 63 222 0.0 0.0 0.00 0.00 0.00 85 1009.6
20220627023713 64 222 0.0 0.0 0.00 0.00 0.00 84 1009.4
20220627023213 64 222 0.0 0.0 0.00 0.00 0.00 84 1009.5
20220627020713 64 222 0.0 0.0 0.00 0.00 0.00 84 1009.6
20220627013713 64 222 0.0 0.0 0.00 0.00 0.00 84 1009.7
20220627010213 64 235 0.0 0.0 0.00 0.00 0.00 84 1009.6
20220627003213 64 231 0.0 0.0 0.00 0.00 0.00 84 1009.6
20220626233712 66 231 0.0 0.0 0.00 0.00 0.00 80 1009.7
20220626223213 68 224 0.0 0.0 0.00 0.00 0.00 79 1009.4
20220626220714 69 224 0.0 0.0 0.00 0.00 0.00 80 1009.2
20220626220212 69 224 0.0 0.0 0.00 0.00 0.00 79 1009.1
20220626213213 70 221 0.0 0.0 0.00 0.00 0.00 75 1008.6
20220626210713 71 221 0.0 0.0 0.00 0.00 0.00 73 1008.3
20220626210212 71 221 0.0 0.0 0.00 0.00 0.00 72 1008.2
20220626203212 74 221 0.0 0.0 0.00 0.00 0.00 69 1007.8
20220626193712 77 204 0.0 0.0 0.00 0.00 0.00 64 1006.9
20220626183712 79 119 2.0 9.0 0.00 0.00 0.00 59 1006.3
20220626180712 81 157 2.0 6.0 0.00 0.00 0.00 55 1005.9
20220626180212 81 184 0.0 10.0 0.00 0.00 0.00 55 1005.9
20220626173212 83 163 2.0 12.0 0.00 0.00 0.00 51 1005.8
20220626163212 84 111 5.0 15.0 0.00 0.00 0.00 49 1006.0
20220626153712 87 152 1.0 7.0 0.00 0.00 0.00 45 1006.3
20220626153212 87 138 2.0 12.0 0.00 0.00 0.00 45 1006.3
20220626143711 86 216 1.0 10.0 0.00 0.00 0.00 48 1006.5
20220626143212 85 124 0.0 12.0 0.00 0.00 0.00 49 1006.7
20220626140212 84 178 3.0 16.0 0.00 0.00 0.00 50 1007.2
20220626133712 83 154 2.0 12.0 0.00 0.00 0.00 49 1007.3
20220626130712 83 128 3.0 12.0 0.00 0.00 0.00 50 1007.5
20220626130211 83 118 4.0 12.0 0.00 0.00 0.00 51 1007.5
20220626123711 82 118 2.0 6.0 0.00 0.00 0.00 53 1007.7
20220626113712 81 117 3.0 13.0 0.00 0.00 0.00 55 1008.3
20220626113212 81 142 5.0 14.0 0.00 0.00 0.00 53 1008.4
20220626110711 81 157 2.0 12.0 0.00 0.00 0.00 54 1008.4